sensor_id;sensor_type;location;lat;lon;timestamp;P1;durP1;ratioP1;P2;durP2;ratioP2
39908;SDS011;25576;48.328;15.694;2022-07-06T00:04:03;7.75;;;2.97;;
39908;SDS011;25576;48.328;15.694;2022-07-06T00:09:56;2.58;;;2.20;;
39908;SDS011;25576;48.328;15.694;2022-07-06T00:15:49;1.67;;;1.58;;
39908;SDS011;25576;48.328;15.694;2022-07-06T00:21:39;3.65;;;1.98;;
39908;SDS011;25576;48.328;15.694;2022-07-06T00:27:31;1.85;;;1.73;;
39908;SDS011;25576;48.328;15.694;2022-07-06T00:37:44;3.85;;;3.35;;
39908;SDS011;25576;48.328;15.694;2022-07-06T00:43:49;4.22;;;2.97;;
39908;SDS011;25576;48.328;15.694;2022-07-06T00:49:40;4.00;;;2.60;;
39908;SDS011;25576;48.328;15.694;2022-07-06T00:55:47;4.78;;;3.03;;
39908;SDS011;25576;48.328;15.694;2022-07-06T01:01:41;4.03;;;2.88;;
39908;SDS011;25576;48.328;15.694;2022-07-06T01:07:31;5.47;;;2.88;;
39908;SDS011;25576;48.328;15.694;2022-07-06T01:13:21;4.93;;;1.70;;
39908;SDS011;25576;48.328;15.694;2022-07-06T01:19:13;2.58;;;1.70;;
39908;SDS011;25576;48.328;15.694;2022-07-06T01:25:06;2.03;;;1.50;;
39908;SDS011;25576;48.328;15.694;2022-07-06T01:30:57;3.33;;;1.40;;
39908;SDS011;25576;48.328;15.694;2022-07-06T01:41:11;3.95;;;2.03;;
39908;SDS011;25576;48.328;15.694;2022-07-06T01:47:01;6.22;;;1.88;;
39908;SDS011;25576;48.328;15.694;2022-07-06T01:52:52;4.20;;;1.80;;
39908;SDS011;25576;48.328;15.694;2022-07-06T01:58:44;3.90;;;1.70;;
39908;SDS011;25576;48.328;15.694;2022-07-06T02:04:34;2.78;;;1.50;;
39908;SDS011;25576;48.328;15.694;2022-07-06T02:10:24;4.57;;;1.50;;
39908;SDS011;25576;48.328;15.694;2022-07-06T02:16:16;2.05;;;1.38;;
39908;SDS011;25576;48.328;15.694;2022-07-06T02:22:06;2.03;;;1.58;;
39908;SDS011;25576;48.328;15.694;2022-07-06T02:27:57;3.78;;;1.63;;
39908;SDS011;25576;48.328;15.694;2022-07-06T02:33:49;1.42;;;1.30;;
39908;SDS011;25576;48.328;15.694;2022-07-06T02:44:02;2.25;;;1.42;;
39908;SDS011;25576;48.328;15.694;2022-07-06T02:49:55;3.70;;;1.85;;
39908;SDS011;25576;48.328;15.694;2022-07-06T02:55:45;2.75;;;1.88;;
39908;SDS011;25576;48.328;15.694;2022-07-06T03:01:35;3.35;;;1.80;;
39908;SDS011;25576;48.328;15.694;2022-07-06T03:07:27;2.75;;;1.88;;
39908;SDS011;25576;48.328;15.694;2022-07-06T03:13:18;1.70;;;1.58;;
39908;SDS011;25576;48.328;15.694;2022-07-06T03:19:09;2.33;;;1.90;;
39908;SDS011;25576;48.328;15.694;2022-07-06T03:25:03;6.30;;;2.00;;
39908;SDS011;25576;48.328;15.694;2022-07-06T03:30:54;4.68;;;2.17;;
39908;SDS011;25576;48.328;15.694;2022-07-06T03:36:45;3.97;;;2.05;;
39908;SDS011;25576;48.328;15.694;2022-07-06T03:46:59;3.30;;;2.47;;
39908;SDS011;25576;48.328;15.694;2022-07-06T03:52:50;3.83;;;2.13;;
39908;SDS011;25576;48.328;15.694;2022-07-06T03:58:40;4.47;;;2.25;;
39908;SDS011;25576;48.328;15.694;2022-07-06T04:04:33;3.25;;;2.10;;
39908;SDS011;25576;48.328;15.694;2022-07-06T04:10:23;3.53;;;2.08;;
39908;SDS011;25576;48.328;15.694;2022-07-06T04:16:14;4.80;;;2.13;;
39908;SDS011;25576;48.328;15.694;2022-07-06T04:22:06;3.33;;;2.40;;
39908;SDS011;25576;48.328;15.694;2022-07-06T04:27:56;3.45;;;2.45;;
39908;SDS011;25576;48.328;15.694;2022-07-06T04:33:47;4.50;;;2.67;;
39908;SDS011;25576;48.328;15.694;2022-07-06T04:39:38;3.10;;;2.67;;
39908;SDS011;25576;48.328;15.694;2022-07-06T04:49:51;2.80;;;2.30;;
39908;SDS011;25576;48.328;15.694;2022-07-06T04:55:43;2.88;;;2.10;;
39908;SDS011;25576;48.328;15.694;2022-07-06T05:01:33;3.80;;;2.22;;
39908;SDS011;25576;48.328;15.694;2022-07-06T05:07:23;7.57;;;2.50;;
39908;SDS011;25576;48.328;15.694;2022-07-06T05:13:17;7.72;;;2.67;;
39908;SDS011;25576;48.328;15.694;2022-07-06T05:19:08;4.32;;;2.70;;
39908;SDS011;25576;48.328;15.694;2022-07-06T05:24:58;4.22;;;2.70;;
39908;SDS011;25576;48.328;15.694;2022-07-06T05:30:49;3.10;;;2.80;;
39908;SDS011;25576;48.328;15.694;2022-07-06T05:36:39;3.83;;;2.35;;
39908;SDS011;25576;48.328;15.694;2022-07-06T05:42:30;9.60;;;2.33;;
39908;SDS011;25576;48.328;15.694;2022-07-06T05:52:44;7.65;;;2.22;;
39908;SDS011;25576;48.328;15.694;2022-07-06T05:58:45;6.22;;;1.70;;
39908;SDS011;25576;48.328;15.694;2022-07-06T06:04:37;4.10;;;1.80;;
39908;SDS011;25576;48.328;15.694;2022-07-06T06:10:29;1.80;;;1.38;;
39908;SDS011;25576;48.328;15.694;2022-07-06T06:16:00;3.63;;;1.67;;
39908;SDS011;25576;48.328;15.694;2022-07-06T06:21:51;3.28;;;1.10;;
39908;SDS011;25576;48.328;15.694;2022-07-06T06:27:43;1.63;;;1.40;;
39908;SDS011;25576;48.328;15.694;2022-07-06T06:33:15;2.80;;;2.45;;
39908;SDS011;25576;48.328;15.694;2022-07-06T06:39:10;1.92;;;1.27;;
39908;SDS011;25576;48.328;15.694;2022-07-06T06:45:05;2.28;;;1.98;;
39908;SDS011;25576;48.328;15.694;2022-07-06T06:55:20;1.35;;;1.20;;
39908;SDS011;25576;48.328;15.694;2022-07-06T07:01:13;2.28;;;1.42;;
39908;SDS011;25576;48.328;15.694;2022-07-06T07:06:44;2.08;;;1.40;;
39908;SDS011;25576;48.328;15.694;2022-07-06T07:12:42;1.33;;;1.20;;
39908;SDS011;25576;48.328;15.694;2022-07-06T07:18:35;1.98;;;1.40;;
39908;SDS011;25576;48.328;15.694;2022-07-06T07:24:25;2.00;;;1.20;;
39908;SDS011;25576;48.328;15.694;2022-07-06T07:29:58;4.03;;;1.30;;
39908;SDS011;25576;48.328;15.694;2022-07-06T07:35:52;1.70;;;1.30;;
39908;SDS011;25576;48.328;15.694;2022-07-06T07:41:43;1.45;;;1.10;;
39908;SDS011;25576;48.328;15.694;2022-07-06T07:47:35;2.20;;;1.48;;
39908;SDS011;25576;48.328;15.694;2022-07-06T07:57:53;1.73;;;1.48;;
39908;SDS011;25576;48.328;15.694;2022-07-06T08:03:44;4.13;;;1.73;;
39908;SDS011;25576;48.328;15.694;2022-07-06T08:09:35;2.00;;;1.80;;
39908;SDS011;25576;48.328;15.694;2022-07-06T08:15:30;4.43;;;3.25;;
39908;SDS011;25576;48.328;15.694;2022-07-06T08:21:21;3.25;;;2.50;;
39908;SDS011;25576;48.328;15.694;2022-07-06T08:27:14;2.70;;;1.70;;
39908;SDS011;25576;48.328;15.694;2022-07-06T08:33:09;1.73;;;1.63;;
39908;SDS011;25576;48.328;15.694;2022-07-06T08:39:00;2.95;;;1.85;;
39908;SDS011;25576;48.328;15.694;2022-07-06T08:44:53;1.90;;;1.73;;
39908;SDS011;25576;48.328;15.694;2022-07-06T08:50:52;2.90;;;1.63;;
39908;SDS011;25576;48.328;15.694;2022-07-06T09:01:06;1.33;;;1.17;;
39908;SDS011;25576;48.328;15.694;2022-07-06T09:07:05;7.13;;;1.27;;
39908;SDS011;25576;48.328;15.694;2022-07-06T09:13:10;2.05;;;1.40;;
39908;SDS011;25576;48.328;15.694;2022-07-06T09:19:03;2.58;;;1.35;;
39908;SDS011;25576;48.328;15.694;2022-07-06T09:25:02;1.45;;;1.30;;
39908;SDS011;25576;48.328;15.694;2022-07-06T09:30:54;2.45;;;1.10;;
39908;SDS011;25576;48.328;15.694;2022-07-06T09:36:57;1.67;;;1.45;;
39908;SDS011;25576;48.328;15.694;2022-07-06T09:43:08;1.20;;;1.10;;
39908;SDS011;25576;48.328;15.694;2022-07-06T09:49:06;1.00;;;0.90;;
39908;SDS011;25576;48.328;15.694;2022-07-06T09:54:57;1.48;;;1.00;;
39908;SDS011;25576;48.328;15.694;2022-07-06T10:05:54;1.90;;;1.30;;
39908;SDS011;25576;48.328;15.694;2022-07-06T10:11:50;2.15;;;1.20;;
39908;SDS011;25576;48.328;15.694;2022-07-06T10:17:55;1.85;;;1.33;;
39908;SDS011;25576;48.328;15.694;2022-07-06T10:23:50;1.85;;;1.30;;
39908;SDS011;25576;48.328;15.694;2022-07-06T10:29:49;3.33;;;1.38;;
39908;SDS011;25576;48.328;15.694;2022-07-06T10:35:55;0.95;;;0.90;;
39908;SDS011;25576;48.328;15.694;2022-07-06T10:42:00;2.28;;;1.13;;
39908;SDS011;25576;48.328;15.694;2022-07-06T10:54:12;3.17;;;0.90;;
39908;SDS011;25576;48.328;15.694;2022-07-06T11:06:45;1.42;;;0.90;;
39908;SDS011;25576;48.328;15.694;2022-07-06T11:12:48;1.08;;;0.80;;
39908;SDS011;25576;48.328;15.694;2022-07-06T11:19:04;1.02;;;0.70;;
39908;SDS011;25576;48.328;15.694;2022-07-06T11:24:58;1.13;;;0.70;;
39908;SDS011;25576;48.328;15.694;2022-07-06T11:30:50;3.13;;;1.05;;
39908;SDS011;25576;48.328;15.694;2022-07-06T11:36:53;0.88;;;0.60;;
39908;SDS011;25576;48.328;15.694;2022-07-06T11:42:52;1.38;;;0.70;;
39908;SDS011;25576;48.328;15.694;2022-07-06T11:48:45;0.93;;;0.70;;
39908;SDS011;25576;48.328;15.694;2022-07-06T11:54:40;1.95;;;0.98;;
39908;SDS011;25576;48.328;15.694;2022-07-06T12:00:33;1.13;;;0.70;;
39908;SDS011;25576;48.328;15.694;2022-07-06T12:06:26;0.60;;;0.60;;
39908;SDS011;25576;48.328;15.694;2022-07-06T12:12:20;0.82;;;0.60;;
39908;SDS011;25576;48.328;15.694;2022-07-06T12:18:11;1.77;;;0.63;;
39908;SDS011;25576;48.328;15.694;2022-07-06T12:24:24;0.60;;;0.60;;
39908;SDS011;25576;48.328;15.694;2022-07-06T12:30:18;1.25;;;0.70;;
39908;SDS011;25576;48.328;15.694;2022-07-06T12:36:12;2.22;;;0.80;;
39908;SDS011;25576;48.328;15.694;2022-07-06T12:42:04;2.17;;;1.08;;
39908;SDS011;25576;48.328;15.694;2022-07-06T12:48:01;2.33;;;1.10;;
39908;SDS011;25576;48.328;15.694;2022-07-06T13:00:02;3.13;;;1.30;;
39908;SDS011;25576;48.328;15.694;2022-07-06T13:05:56;6.72;;;6.13;;
39908;SDS011;25576;48.328;15.694;2022-07-06T13:11:48;3.05;;;1.20;;
39908;SDS011;25576;48.328;15.694;2022-07-06T13:17:20;3.00;;;2.28;;
39908;SDS011;25576;48.328;15.694;2022-07-06T13:23:13;1.65;;;0.95;;
39908;SDS011;25576;48.328;15.694;2022-07-06T13:29:05;4.10;;;1.60;;
39908;SDS011;25576;48.328;15.694;2022-07-06T13:34:58;3.80;;;1.45;;
39908;SDS011;25576;48.328;15.694;2022-07-06T13:40:50;1.00;;;0.82;;
39908;SDS011;25576;48.328;15.694;2022-07-06T13:46:40;2.20;;;1.30;;
39908;SDS011;25576;48.328;15.694;2022-07-06T13:52:31;1.23;;;0.80;;
39908;SDS011;25576;48.328;15.694;2022-07-06T13:58:23;0.82;;;0.70;;
39908;SDS011;25576;48.328;15.694;2022-07-06T14:04:17;0.93;;;0.90;;
39908;SDS011;25576;48.328;15.694;2022-07-06T14:10:11;2.08;;;1.05;;
39908;SDS011;25576;48.328;15.694;2022-07-06T14:16:08;0.85;;;0.70;;
39908;SDS011;25576;48.328;15.694;2022-07-06T14:21:59;1.65;;;1.15;;
39908;SDS011;25576;48.328;15.694;2022-07-06T14:27:53;3.85;;;1.02;;
39908;SDS011;25576;48.328;15.694;2022-07-06T14:33:48;1.10;;;0.70;;
39908;SDS011;25576;48.328;15.694;2022-07-06T14:39:41;2.35;;;0.90;;
39908;SDS011;25576;48.328;15.694;2022-07-06T14:45:34;1.33;;;0.90;;
39908;SDS011;25576;48.328;15.694;2022-07-06T14:51:30;1.63;;;0.95;;
39908;SDS011;25576;48.328;15.694;2022-07-06T14:57:20;1.70;;;1.30;;
39908;SDS011;25576;48.328;15.694;2022-07-06T15:07:16;2.75;;;1.55;;
39908;SDS011;25576;48.328;15.694;2022-07-06T15:13:11;2.72;;;1.88;;
39908;SDS011;25576;48.328;15.694;2022-07-06T15:19:04;2.05;;;1.27;;
39908;SDS011;25576;48.328;15.694;2022-07-06T15:24:58;3.13;;;1.70;;
39908;SDS011;25576;48.328;15.694;2022-07-06T15:30:49;2.28;;;1.20;;
39908;SDS011;25576;48.328;15.694;2022-07-06T15:36:44;2.28;;;1.02;;
39908;SDS011;25576;48.328;15.694;2022-07-06T15:42:38;1.50;;;0.70;;
39908;SDS011;25576;48.328;15.694;2022-07-06T15:48:29;1.10;;;0.80;;
39908;SDS011;25576;48.328;15.694;2022-07-06T15:54:22;1.10;;;0.80;;
39908;SDS011;25576;48.328;15.694;2022-07-06T16:00:19;0.95;;;0.70;;
39908;SDS011;25576;48.328;15.694;2022-07-06T16:10:34;0.90;;;0.73;;
39908;SDS011;25576;48.328;15.694;2022-07-06T16:16:29;2.40;;;1.15;;
39908;SDS011;25576;48.328;15.694;2022-07-06T16:22:22;2.45;;;0.80;;
39908;SDS011;25576;48.328;15.694;2022-07-06T16:28:17;1.88;;;0.70;;
39908;SDS011;25576;48.328;15.694;2022-07-06T16:34:13;0.60;;;0.57;;
39908;SDS011;25576;48.328;15.694;2022-07-06T16:40:08;1.17;;;0.40;;
39908;SDS011;25576;48.328;15.694;2022-07-06T16:45:40;0.85;;;0.60;;
39908;SDS011;25576;48.328;15.694;2022-07-06T16:51:34;1.00;;;0.60;;
39908;SDS011;25576;48.328;15.694;2022-07-06T16:57:25;3.10;;;0.80;;
39908;SDS011;25576;48.328;15.694;2022-07-06T17:03:17;0.45;;;0.45;;
39908;SDS011;25576;48.328;15.694;2022-07-06T17:13:33;0.60;;;0.60;;
39908;SDS011;25576;48.328;15.694;2022-07-06T17:19:26;1.23;;;0.60;;
39908;SDS011;25576;48.328;15.694;2022-07-06T17:25:18;0.70;;;0.47;;
39908;SDS011;25576;48.328;15.694;2022-07-06T17:31:10;0.52;;;0.50;;
39908;SDS011;25576;48.328;15.694;2022-07-06T17:37:04;1.13;;;0.73;;
39908;SDS011;25576;48.328;15.694;2022-07-06T17:42:56;2.50;;;0.75;;
39908;SDS011;25576;48.328;15.694;2022-07-06T17:48:53;1.85;;;0.70;;
39908;SDS011;25576;48.328;15.694;2022-07-06T17:54:48;2.10;;;0.80;;
39908;SDS011;25576;48.328;15.694;2022-07-06T18:00:42;1.20;;;0.77;;
39908;SDS011;25576;48.328;15.694;2022-07-06T18:06:37;2.35;;;0.63;;
39908;SDS011;25576;48.328;15.694;2022-07-06T18:16:54;2.67;;;0.60;;
39908;SDS011;25576;48.328;15.694;2022-07-06T18:22:47;1.50;;;0.65;;
39908;SDS011;25576;48.328;15.694;2022-07-06T18:28:39;1.48;;;0.75;;
39908;SDS011;25576;48.328;15.694;2022-07-06T18:34:31;0.77;;;0.65;;
39908;SDS011;25576;48.328;15.694;2022-07-06T18:40:23;0.77;;;0.68;;
39908;SDS011;25576;48.328;15.694;2022-07-06T18:46:13;0.80;;;0.70;;
39908;SDS011;25576;48.328;15.694;2022-07-06T18:52:05;2.70;;;0.80;;
39908;SDS011;25576;48.328;15.694;2022-07-06T18:57:57;0.95;;;0.70;;
39908;SDS011;25576;48.328;15.694;2022-07-06T19:03:51;0.93;;;0.70;;
39908;SDS011;25576;48.328;15.694;2022-07-06T19:09:43;2.88;;;0.70;;
39908;SDS011;25576;48.328;15.694;2022-07-06T19:19:57;3.72;;;0.80;;
39908;SDS011;25576;48.328;15.694;2022-07-06T19:25:48;2.35;;;0.70;;
39908;SDS011;25576;48.328;15.694;2022-07-06T19:31:38;1.73;;;1.30;;
39908;SDS011;25576;48.328;15.694;2022-07-06T19:37:30;1.85;;;0.85;;
39908;SDS011;25576;48.328;15.694;2022-07-06T19:43:22;1.73;;;0.90;;
39908;SDS011;25576;48.328;15.694;2022-07-06T19:49:13;1.20;;;1.00;;
39908;SDS011;25576;48.328;15.694;2022-07-06T19:55:06;2.20;;;1.20;;
39908;SDS011;25576;48.328;15.694;2022-07-06T20:00:58;1.38;;;1.10;;
39908;SDS011;25576;48.328;15.694;2022-07-06T20:06:49;1.60;;;0.90;;
39908;SDS011;25576;48.328;15.694;2022-07-06T20:12:43;1.55;;;0.90;;
39908;SDS011;25576;48.328;15.694;2022-07-06T20:22:56;2.55;;;1.27;;
39908;SDS011;25576;48.328;15.694;2022-07-06T20:28:49;1.70;;;1.10;;
39908;SDS011;25576;48.328;15.694;2022-07-06T20:34:40;1.02;;;0.88;;
39908;SDS011;25576;48.328;15.694;2022-07-06T20:40:30;1.85;;;1.02;;
39908;SDS011;25576;48.328;15.694;2022-07-06T20:46:22;1.58;;;1.13;;
39908;SDS011;25576;48.328;15.694;2022-07-06T20:52:13;1.98;;;1.30;;
39908;SDS011;25576;48.328;15.694;2022-07-06T20:58:04;1.15;;;1.05;;
39908;SDS011;25576;48.328;15.694;2022-07-06T21:03:38;3.33;;;1.30;;
39908;SDS011;25576;48.328;15.694;2022-07-06T21:09:10;1.65;;;1.10;;
39908;SDS011;25576;48.328;15.694;2022-07-06T21:15:00;1.27;;;1.17;;
39908;SDS011;25576;48.328;15.694;2022-07-06T21:25:04;2.63;;;1.38;;
39908;SDS011;25576;48.328;15.694;2022-07-06T21:30:57;2.40;;;1.40;;
39908;SDS011;25576;48.328;15.694;2022-07-06T21:36:47;6.07;;;1.55;;
39908;SDS011;25576;48.328;15.694;2022-07-06T21:42:39;1.27;;;1.15;;
39908;SDS011;25576;48.328;15.694;2022-07-06T21:48:30;1.58;;;1.48;;
39908;SDS011;25576;48.328;15.694;2022-07-06T21:54:23;3.97;;;1.40;;
39908;SDS011;25576;48.328;15.694;2022-07-06T22:00:15;1.98;;;1.30;;
39908;SDS011;25576;48.328;15.694;2022-07-06T22:06:06;2.55;;;1.60;;
39908;SDS011;25576;48.328;15.694;2022-07-06T22:12:00;1.80;;;1.38;;
39908;SDS011;25576;48.328;15.694;2022-07-06T22:17:53;2.45;;;1.67;;
39908;SDS011;25576;48.328;15.694;2022-07-06T22:28:06;3.08;;;1.65;;
39908;SDS011;25576;48.328;15.694;2022-07-06T22:33:59;3.88;;;1.77;;
39908;SDS011;25576;48.328;15.694;2022-07-06T22:39:49;2.10;;;1.85;;
39908;SDS011;25576;48.328;15.694;2022-07-06T22:46:00;2.35;;;1.58;;
39908;SDS011;25576;48.328;15.694;2022-07-06T22:51:58;2.05;;;1.60;;
39908;SDS011;25576;48.328;15.694;2022-07-06T22:57:48;2.80;;;1.90;;
39908;SDS011;25576;48.328;15.694;2022-07-06T23:04:00;2.75;;;1.90;;
39908;SDS011;25576;48.328;15.694;2022-07-06T23:09:52;2.03;;;1.60;;
39908;SDS011;25576;48.328;15.694;2022-07-06T23:15:44;1.75;;;1.58;;
39908;SDS011;25576;48.328;15.694;2022-07-06T23:21:39;2.55;;;1.73;;
39908;SDS011;25576;48.328;15.694;2022-07-06T23:27:32;1.90;;;1.60;;
39908;SDS011;25576;48.328;15.694;2022-07-06T23:33:23;2.03;;;1.75;;
39908;SDS011;25576;48.328;15.694;2022-07-06T23:39:15;5.15;;;2.20;;
39908;SDS011;25576;48.328;15.694;2022-07-06T23:45:09;3.47;;;1.90;;
39908;SDS011;25576;48.328;15.694;2022-07-06T23:51:01;7.43;;;2.30;;
39908;SDS011;25576;48.328;15.694;2022-07-06T23:56:51;2.30;;;2.10;;
